MSC Lea — 9HA2639 — position and weather

sailwx.info

Track history (hours):
 
Tides and Currents Weather Stations Pressure Air Temp Water Temp Dewpoint Dewpoint Depression Visibility Wind Speed Wind Dir Waves Ship Positions

MSC Lea

Last reported at 2015-Feb-27 16:33 UTC. Time now 2015-Feb-28 12:34 UTC.
Position N 44°32' E 037°41'.

Length 217 m; draft 7.7 m.

Type: Ship (hazmat cat A). MMSI: 215101000.

Date/timePositionNaut miles runAvg speedWind from/ knotsBaromVisibWave heightAir tempDewpointWater temp
2015-Feb-27 16:33N 44°32' E 037°41'1212.0
2015-Feb-27 15:33N 44°43' E 037°48'1 1.2
2015-Feb-27 14:31N 44°44' E 037°47'0 0.0
2015-Feb-27 13:32N 44°44' E 037°47'0 0.0
2015-Feb-27 12:32N 44°44' E 037°47'0 0.0
2015-Feb-27 11:33N 44°44' E 037°47'0 0.0
2015-Feb-27 10:31N 44°44' E 037°47'0 0.0
2015-Feb-27 09:31N 44°44' E 037°47'0 0.0
2015-Feb-27 08:32N 44°44' E 037°47'0 0.0
2015-Feb-27 07:33N 44°44' E 037°47'0 0.0
2015-Feb-27 06:33N 44°44' E 037°47'0 0.0
2015-Feb-27 05:31N 44°44' E 037°47'0 0.0
2015-Feb-27 04:32N 44°44' E 037°47'0 0.0
2015-Feb-27 03:32N 44°44' E 037°47'0 0.0
2015-Feb-27 02:33N 44°44' E 037°47'0 0.0
2015-Feb-27 01:33N 44°44' E 037°47'0 0.0
2015-Feb-27 00:31N 44°44' E 037°47'0 0.0
2015-Feb-26 23:32N 44°44' E 037°47'0 0.3
2015-Feb-26 22:33N 44°43' E 037°47'6 6.2
2015-Feb-26 21:33N 44°38' E 037°51'6 5.7
2015-Feb-26 20:33N 44°33' E 037°49'1111.1
2015-Feb-26 19:33N 44°27' E 037°35'1513.1
2015-Feb-26 18:25N 44°20' E 037°17'37517.8
2015-Feb-25 21:22N 41°27' E 029°43'1518.6
2015-Feb-25 20:33N 41°21' E 029°25'2813.4
2015-Feb-25 18:29N 41°00' E 028°60'6 6.7
2015-Feb-25 17:33N 40°54' E 028°57'1211.7
2015-Feb-25 16:33N 40°47' E 028°45'1 1.5
2015-Feb-25 15:33N 40°46' E 028°44'0 0.1
2015-Feb-25 14:26N 40°46' E 028°44'0 0.1
2015-Feb-25 13:33N 40°46' E 028°43'0 0.1
2015-Feb-25 12:33N 40°46' E 028°43'0 0.1
2015-Feb-25 11:34N 40°46' E 028°43'0 0.1
2015-Feb-25 10:30N 40°46' E 028°43'0 0.2
2015-Feb-25 09:24N 40°46' E 028°43'7 7.4
2015-Feb-25 08:29N 40°49' E 028°35'23411.0
2015-Feb-24 11:09N 37°32' E 025°52'914.3
2015-Feb-24 10:33N 37°24' E 025°56'  
Track history (hours):
 
Tides and Currents Weather Stations Pressure Air Temp Water Temp Dewpoint Dewpoint Depression Visibility Wind Speed Wind Dir Waves Ship Positions

MSC Lea

Last reported at 2015-Feb-27 16:33 UTC. Time now 2015-Feb-28 12:34 UTC.
Position N 44°32' E 037°41'.

Length 217 m; draft 7.7 m.

Type: Ship (hazmat cat A). MMSI: 215101000.

Date/timePositionNaut miles runAvg speedWind from/ knotsBaromVisibWave heightAir tempDewpointWater temp
2015-Feb-27 16:33N 44°32' E 037°41'1212.0
2015-Feb-27 15:33N 44°43' E 037°48'1 1.2
2015-Feb-27 14:31N 44°44' E 037°47'0 0.0
2015-Feb-27 13:32N 44°44' E 037°47'0 0.0
2015-Feb-27 12:32N 44°44' E 037°47'0 0.0
2015-Feb-27 11:33N 44°44' E 037°47'0 0.0
2015-Feb-27 10:31N 44°44' E 037°47'0 0.0
2015-Feb-27 09:31N 44°44' E 037°47'0 0.0
2015-Feb-27 08:32N 44°44' E 037°47'0 0.0
2015-Feb-27 07:33N 44°44' E 037°47'0 0.0
2015-Feb-27 06:33N 44°44' E 037°47'0 0.0
2015-Feb-27 05:31N 44°44' E 037°47'0 0.0
2015-Feb-27 04:32N 44°44' E 037°47'0 0.0
2015-Feb-27 03:32N 44°44' E 037°47'0 0.0
2015-Feb-27 02:33N 44°44' E 037°47'0 0.0
2015-Feb-27 01:33N 44°44' E 037°47'0 0.0
2015-Feb-27 00:31N 44°44' E 037°47'0 0.0
2015-Feb-26 23:32N 44°44' E 037°47'0 0.3
2015-Feb-26 22:33N 44°43' E 037°47'6 6.2
2015-Feb-26 21:33N 44°38' E 037°51'6 5.7
2015-Feb-26 20:33N 44°33' E 037°49'1111.1
2015-Feb-26 19:33N 44°27' E 037°35'1513.1
2015-Feb-26 18:25N 44°20' E 037°17'37517.8
2015-Feb-25 21:22N 41°27' E 029°43'1518.6
2015-Feb-25 20:33N 41°21' E 029°25'2813.4
2015-Feb-25 18:29N 41°00' E 028°60'6 6.7
2015-Feb-25 17:33N 40°54' E 028°57'1211.7
2015-Feb-25 16:33N 40°47' E 028°45'1 1.5
2015-Feb-25 15:33N 40°46' E 028°44'0 0.1
2015-Feb-25 14:26N 40°46' E 028°44'0 0.1
2015-Feb-25 13:33N 40°46' E 028°43'0 0.1
2015-Feb-25 12:33N 40°46' E 028°43'0 0.1
2015-Feb-25 11:34N 40°46' E 028°43'0 0.1
2015-Feb-25 10:30N 40°46' E 028°43'0 0.2
2015-Feb-25 09:24N 40°46' E 028°43'7 7.4
2015-Feb-25 08:29N 40°49' E 028°35'23411.0
2015-Feb-24 11:09N 37°32' E 025°52'914.3
2015-Feb-24 10:33N 37°24' E 025°56'  

Dump ship's entire track history